sensor_id;sensor_type;location;lat;lon;timestamp;pressure;altitude;pressure_sealevel;temperature;humidity
19150;BME280;9707;49.158;8.632;2023-03-03T00:01:06;100706.38;;;16.62;28.80
19150;BME280;9707;49.158;8.632;2023-03-03T00:03:32;100699.25;;;16.61;28.70
19150;BME280;9707;49.158;8.632;2023-03-03T00:06:00;100706.53;;;16.59;28.53
19150;BME280;9707;49.158;8.632;2023-03-03T00:08:26;100694.94;;;16.58;28.54
19150;BME280;9707;49.158;8.632;2023-03-03T00:10:53;100700.41;;;16.57;28.47
19150;BME280;9707;49.158;8.632;2023-03-03T00:13:24;100697.88;;;16.54;28.50
19150;BME280;9707;49.158;8.632;2023-03-03T00:15:51;100707.78;;;16.53;28.66
19150;BME280;9707;49.158;8.632;2023-03-03T00:18:30;100710.56;;;16.52;28.45
19150;BME280;9707;49.158;8.632;2023-03-03T00:20:59;100718.78;;;16.49;28.58
19150;BME280;9707;49.158;8.632;2023-03-03T00:25:54;100710.91;;;16.46;28.87
19150;BME280;9707;49.158;8.632;2023-03-03T00:28:46;100715.50;;;16.44;28.66
19150;BME280;9707;49.158;8.632;2023-03-03T00:31:16;100721.06;;;16.41;28.50
19150;BME280;9707;49.158;8.632;2023-03-03T00:33:47;100716.53;;;16.41;28.77
19150;BME280;9707;49.158;8.632;2023-03-03T00:38:41;100714.84;;;16.39;28.30
19150;BME280;9707;49.158;8.632;2023-03-03T00:41:24;100723.00;;;16.37;28.54
19150;BME280;9707;49.158;8.632;2023-03-03T00:43:50;100719.53;;;16.35;28.38
19150;BME280;9707;49.158;8.632;2023-03-03T00:46:21;100708.03;;;16.33;28.55
19150;BME280;9707;49.158;8.632;2023-03-03T00:48:49;100710.72;;;16.33;28.59
19150;BME280;9707;49.158;8.632;2023-03-03T00:51:30;100708.09;;;16.32;28.46
19150;BME280;9707;49.158;8.632;2023-03-03T00:53:56;100710.88;;;16.30;28.37
19150;BME280;9707;49.158;8.632;2023-03-03T00:56:22;100721.63;;;16.30;28.45
19150;BME280;9707;49.158;8.632;2023-03-03T00:58:48;100715.56;;;16.27;28.36
19150;BME280;9707;49.158;8.632;2023-03-03T01:01:16;100711.91;;;16.28;28.69
19150;BME280;9707;49.158;8.632;2023-03-03T01:03:42;100715.56;;;16.27;28.44
19150;BME280;9707;49.158;8.632;2023-03-03T01:06:08;100718.34;;;16.25;28.69
19150;BME280;9707;49.158;8.632;2023-03-03T01:08:34;100717.44;;;16.25;28.22
19150;BME280;9707;49.158;8.632;2023-03-03T01:11:03;100727.44;;;16.23;28.46
19150;BME280;9707;49.158;8.632;2023-03-03T01:13:32;100717.66;;;16.22;28.42
19150;BME280;9707;49.158;8.632;2023-03-03T01:15:59;100716.75;;;16.21;28.62
19150;BME280;9707;49.158;8.632;2023-03-03T01:18:25;100712.34;;;16.20;28.42
19150;BME280;9707;49.158;8.632;2023-03-03T01:20:50;100711.59;;;16.18;28.18
19150;BME280;9707;49.158;8.632;2023-03-03T01:23:16;100714.34;;;16.17;28.63
19150;BME280;9707;49.158;8.632;2023-03-03T01:25:41;100716.16;;;16.16;28.60
19150;BME280;9707;49.158;8.632;2023-03-03T01:28:07;100708.97;;;16.17;28.73
19150;BME280;9707;49.158;8.632;2023-03-03T01:30:32;100714.34;;;16.17;28.51
19150;BME280;9707;49.158;8.632;2023-03-03T01:32:58;100711.66;;;16.17;28.28
19150;BME280;9707;49.158;8.632;2023-03-03T01:35:23;100710.88;;;16.15;28.50
19150;BME280;9707;49.158;8.632;2023-03-03T01:37:48;100703.75;;;16.14;28.50
19150;BME280;9707;49.158;8.632;2023-03-03T01:40:20;100710.97;;;16.13;28.50
19150;BME280;9707;49.158;8.632;2023-03-03T01:42:46;100714.50;;;16.14;29.56
19150;BME280;9707;49.158;8.632;2023-03-03T01:47:43;100712.69;;;16.14;28.58
19150;BME280;9707;49.158;8.632;2023-03-03T01:50:14;100714.59;;;16.12;28.50
19150;BME280;9707;49.158;8.632;2023-03-03T01:52:43;100712.94;;;16.10;28.67
19150;BME280;9707;49.158;8.632;2023-03-03T01:55:22;100718.31;;;16.10;29.05
19150;BME280;9707;49.158;8.632;2023-03-03T01:57:59;100713.06;;;16.08;28.36
19150;BME280;9707;49.158;8.632;2023-03-03T02:00:26;100713.13;;;16.07;28.56
19150;BME280;9707;49.158;8.632;2023-03-03T02:02:52;100709.69;;;16.05;28.37
19150;BME280;9707;49.158;8.632;2023-03-03T02:05:18;100713.28;;;16.04;28.18
19150;BME280;9707;49.158;8.632;2023-03-03T02:07:46;100718.78;;;16.02;28.63
19150;BME280;9707;49.158;8.632;2023-03-03T02:10:14;100709.84;;;16.02;28.27
19150;BME280;9707;49.158;8.632;2023-03-03T02:12:47;100707.22;;;16.00;28.24
19150;BME280;9707;49.158;8.632;2023-03-03T02:17:42;100704.63;;;15.99;28.46
19150;BME280;9707;49.158;8.632;2023-03-03T02:20:18;100710.94;;;15.98;28.15
19150;BME280;9707;49.158;8.632;2023-03-03T02:22:56;100710.19;;;15.96;28.24
19150;BME280;9707;49.158;8.632;2023-03-03T02:25:52;100715.56;;;15.96;28.13
19150;BME280;9707;49.158;8.632;2023-03-03T02:28:14;100716.59;;;15.93;28.09
19150;BME280;9707;49.158;8.632;2023-03-03T02:30:40;100712.19;;;15.92;28.19
19150;BME280;9707;49.158;8.632;2023-03-03T02:33:05;100713.97;;;15.92;28.18
19150;BME280;9707;49.158;8.632;2023-03-03T02:35:37;100716.75;;;15.90;28.70
19150;BME280;9707;49.158;8.632;2023-03-03T02:38:12;100721.28;;;15.90;28.58
19150;BME280;9707;49.158;8.632;2023-03-03T02:40:44;100723.00;;;15.91;28.63
19150;BME280;9707;49.158;8.632;2023-03-03T02:43:11;100714.13;;;15.89;28.36
19150;BME280;9707;49.158;8.632;2023-03-03T02:45:42;100708.78;;;15.89;28.28
19150;BME280;9707;49.158;8.632;2023-03-03T02:48:07;100715.09;;;15.88;28.51
19150;BME280;9707;49.158;8.632;2023-03-03T02:50:33;100708.00;;;15.87;28.35
19150;BME280;9707;49.158;8.632;2023-03-03T02:52:58;100713.44;;;15.85;28.27
19150;BME280;9707;49.158;8.632;2023-03-03T02:55:23;100711.72;;;15.84;28.18
19150;BME280;9707;49.158;8.632;2023-03-03T02:57:49;100716.22;;;15.84;28.09
19150;BME280;9707;49.158;8.632;2023-03-03T03:00:14;100711.88;;;15.81;28.30
19150;BME280;9707;49.158;8.632;2023-03-03T03:02:39;100708.34;;;15.81;28.00
19150;BME280;9707;49.158;8.632;2023-03-03T03:05:05;100712.06;;;15.78;28.47
19150;BME280;9707;49.158;8.632;2023-03-03T03:07:30;100711.19;;;15.78;28.45
19150;BME280;9707;49.158;8.632;2023-03-03T03:09:55;100721.09;;;15.77;28.10
19150;BME280;9707;49.158;8.632;2023-03-03T03:12:21;100721.16;;;15.76;28.10
19150;BME280;9707;49.158;8.632;2023-03-03T03:14:46;100712.22;;;15.75;28.25
19150;BME280;9707;49.158;8.632;2023-03-03T03:17:11;100711.38;;;15.75;28.30
19150;BME280;9707;49.158;8.632;2023-03-03T03:19:37;100719.50;;;15.73;28.38
19150;BME280;9707;49.158;8.632;2023-03-03T03:22:02;100717.66;;;15.74;27.99
19150;BME280;9707;49.158;8.632;2023-03-03T03:24:30;100722.28;;;15.72;28.01
19150;BME280;9707;49.158;8.632;2023-03-03T03:26:57;100716.00;;;15.71;28.16
19150;BME280;9707;49.158;8.632;2023-03-03T03:29:22;100720.53;;;15.71;28.38
19150;BME280;9707;49.158;8.632;2023-03-03T03:31:48;100716.19;;;15.68;28.31
19150;BME280;9707;49.158;8.632;2023-03-03T03:34:13;100718.88;;;15.68;28.16
19150;BME280;9707;49.158;8.632;2023-03-03T03:36:38;100715.31;;;15.68;28.68
19150;BME280;9707;49.158;8.632;2023-03-03T03:39:04;100717.06;;;15.69;28.59
19150;BME280;9707;49.158;8.632;2023-03-03T03:41:30;100717.06;;;15.69;28.11
19150;BME280;9707;49.158;8.632;2023-03-03T03:43:56;100720.69;;;15.68;28.03
19150;BME280;9707;49.158;8.632;2023-03-03T03:46:21;100724.34;;;15.67;28.20
19150;BME280;9707;49.158;8.632;2023-03-03T03:48:46;100727.97;;;15.66;28.56
19150;BME280;9707;49.158;8.632;2023-03-03T03:51:11;100729.72;;;15.67;28.64
19150;BME280;9707;49.158;8.632;2023-03-03T03:53:37;100727.97;;;15.66;28.57
19150;BME280;9707;49.158;8.632;2023-03-03T03:56:02;100731.63;;;15.65;28.14
19150;BME280;9707;49.158;8.632;2023-03-03T03:58:30;100728.06;;;15.64;28.07
19150;BME280;9707;49.158;8.632;2023-03-03T04:01:01;100725.38;;;15.64;28.07
19150;BME280;9707;49.158;8.632;2023-03-03T04:03:26;100729.97;;;15.62;28.32
19150;BME280;9707;49.158;8.632;2023-03-03T04:05:52;100730.88;;;15.61;28.14
19150;BME280;9707;49.158;8.632;2023-03-03T04:08:18;100739.06;;;15.60;28.01
19150;BME280;9707;49.158;8.632;2023-03-03T04:10:43;100731.00;;;15.60;28.37
19150;BME280;9707;49.158;8.632;2023-03-03T04:13:08;100740.09;;;15.57;28.19
19150;BME280;9707;49.158;8.632;2023-03-03T04:15:33;100737.28;;;15.59;28.01
19150;BME280;9707;49.158;8.632;2023-03-03T04:17:59;100735.56;;;15.58;28.03
19150;BME280;9707;49.158;8.632;2023-03-03T04:20:24;100737.41;;;15.57;28.14
19150;BME280;9707;49.158;8.632;2023-03-03T04:22:49;100739.22;;;15.57;28.11
19150;BME280;9707;49.158;8.632;2023-03-03T04:25:16;100736.53;;;15.57;28.36
19150;BME280;9707;49.158;8.632;2023-03-03T04:27:42;100742.84;;;15.56;28.13
19150;BME280;9707;49.158;8.632;2023-03-03T04:30:08;100742.03;;;15.54;28.24
19150;BME280;9707;49.158;8.632;2023-03-03T04:32:33;100733.06;;;15.55;28.34
19150;BME280;9707;49.158;8.632;2023-03-03T04:34:59;100742.84;;;15.56;28.06
19150;BME280;9707;49.158;8.632;2023-03-03T04:37:24;100737.56;;;15.54;28.28
19150;BME280;9707;49.158;8.632;2023-03-03T04:39:49;100739.34;;;15.54;28.11
19150;BME280;9707;49.158;8.632;2023-03-03T04:42:14;100743.00;;;15.53;28.41
19150;BME280;9707;49.158;8.632;2023-03-03T04:44:40;100737.63;;;15.53;27.78
19150;BME280;9707;49.158;8.632;2023-03-03T04:47:05;100740.38;;;15.51;28.22
19150;BME280;9707;49.158;8.632;2023-03-03T04:49:30;100736.84;;;15.51;28.10
19150;BME280;9707;49.158;8.632;2023-03-03T04:51:56;100734.16;;;15.51;28.19
19150;BME280;9707;49.158;8.632;2023-03-03T04:54:21;100736.06;;;15.49;27.92
19150;BME280;9707;49.158;8.632;2023-03-03T04:56:46;100737.00;;;15.48;27.95
19150;BME280;9707;49.158;8.632;2023-03-03T04:59:12;100737.00;;;15.48;28.02
19150;BME280;9707;49.158;8.632;2023-03-03T05:01:38;100745.06;;;15.48;27.79
19150;BME280;9707;49.158;8.632;2023-03-03T05:04:06;100742.56;;;15.45;27.85
19150;BME280;9707;49.158;8.632;2023-03-03T05:06:31;100748.78;;;15.45;27.98
19150;BME280;9707;49.158;8.632;2023-03-03T05:08:56;100748.84;;;15.44;27.76
19150;BME280;9707;49.158;8.632;2023-03-03T05:11:22;100751.53;;;15.44;28.16
19150;BME280;9707;49.158;8.632;2023-03-03T05:13:47;100758.75;;;15.43;28.30
19150;BME280;9707;49.158;8.632;2023-03-03T05:16:12;100755.19;;;15.43;28.04
19150;BME280;9707;49.158;8.632;2023-03-03T05:18:38;100757.84;;;15.43;27.80
19150;BME280;9707;49.158;8.632;2023-03-03T05:21:03;100765.13;;;15.41;28.00
19150;BME280;9707;49.158;8.632;2023-03-03T05:23:29;100774.91;;;15.42;28.18
19150;BME280;9707;49.158;8.632;2023-03-03T05:25:55;100769.56;;;15.42;28.11
19150;BME280;9707;49.158;8.632;2023-03-03T05:28:20;100773.19;;;15.41;28.35
19150;BME280;9707;49.158;8.632;2023-03-03T05:30:45;100778.56;;;15.41;28.24
19150;BME280;9707;49.158;8.632;2023-03-03T05:33:15;100781.25;;;15.41;28.37
19150;BME280;9707;49.158;8.632;2023-03-03T05:35:41;100774.16;;;15.40;28.13
19150;BME280;9707;49.158;8.632;2023-03-03T05:38:06;100774.16;;;15.40;27.84
19150;BME280;9707;49.158;8.632;2023-03-03T05:40:32;100777.75;;;15.39;27.77
19150;BME280;9707;49.158;8.632;2023-03-03T05:42:57;100782.28;;;15.38;28.19
19150;BME280;9707;49.158;8.632;2023-03-03T05:45:26;100798.38;;;15.38;28.17
19150;BME280;9707;49.158;8.632;2023-03-03T05:47:52;100800.28;;;15.36;28.11
19150;BME280;9707;49.158;8.632;2023-03-03T05:50:23;100799.41;;;15.36;27.90
19150;BME280;9707;49.158;8.632;2023-03-03T05:52:52;100798.53;;;15.35;27.95
19150;BME280;9707;49.158;8.632;2023-03-03T05:55:18;100814.63;;;15.35;28.21
19150;BME280;9707;49.158;8.632;2023-03-03T05:57:44;100808.41;;;15.35;27.89
19150;BME280;9707;49.158;8.632;2023-03-03T06:00:11;100810.22;;;15.34;28.36
19150;BME280;9707;49.158;8.632;2023-03-03T06:02:36;100807.53;;;15.34;28.34
19150;BME280;9707;49.158;8.632;2023-03-03T06:05:02;100817.41;;;15.34;28.33
19150;BME280;9707;49.158;8.632;2023-03-03T06:07:27;100815.63;;;15.33;28.01
19150;BME280;9707;49.158;8.632;2023-03-03T06:09:52;100817.47;;;15.32;27.96
19150;BME280;9707;49.158;8.632;2023-03-03T06:12:18;100826.34;;;15.33;28.29
19150;BME280;9707;49.158;8.632;2023-03-03T06:14:43;100827.38;;;15.30;27.99
19150;BME280;9707;49.158;8.632;2023-03-03T06:17:08;100830.88;;;15.32;28.64
19150;BME280;9707;49.158;8.632;2023-03-03T06:19:35;100832.56;;;15.35;29.12
19150;BME280;9707;49.158;8.632;2023-03-03T06:22:01;100827.97;;;15.37;28.42
19150;BME280;9707;49.158;8.632;2023-03-03T06:24:26;100828.75;;;15.39;28.34
19150;BME280;9707;49.158;8.632;2023-03-03T06:26:56;100834.94;;;15.41;28.28
19150;BME280;9707;49.158;8.632;2023-03-03T06:29:21;100838.47;;;15.41;28.75
19150;BME280;9707;49.158;8.632;2023-03-03T06:31:47;100834.75;;;15.44;28.55
19150;BME280;9707;49.158;8.632;2023-03-03T06:34:12;100841.88;;;15.45;28.46
19150;BME280;9707;49.158;8.632;2023-03-03T06:36:37;100839.97;;;15.47;29.04
19150;BME280;9707;49.158;8.632;2023-03-03T06:39:03;100843.44;;;15.49;28.69
19150;BME280;9707;49.158;8.632;2023-03-03T06:41:28;100847.78;;;15.51;29.13
19150;BME280;9707;49.158;8.632;2023-03-03T06:43:53;100851.28;;;15.53;28.71
19150;BME280;9707;49.158;8.632;2023-03-03T06:46:19;100851.22;;;15.55;29.13
19150;BME280;9707;49.158;8.632;2023-03-03T06:48:44;100851.09;;;15.56;28.97
19150;BME280;9707;49.158;8.632;2023-03-03T06:51:21;100845.66;;;15.58;28.97
19150;BME280;9707;49.158;8.632;2023-03-03T06:53:50;100846.47;;;15.60;28.83
19150;BME280;9707;49.158;8.632;2023-03-03T06:56:17;100850.97;;;15.59;28.06
19150;BME280;9707;49.158;8.632;2023-03-03T06:58:42;100854.59;;;15.58;29.25
19150;BME280;9707;49.158;8.632;2023-03-03T07:01:15;100852.75;;;15.59;29.47
19150;BME280;9707;49.158;8.632;2023-03-03T07:03:40;100857.97;;;15.62;29.47
19150;BME280;9707;49.158;8.632;2023-03-03T07:06:15;100857.91;;;15.63;29.47
19150;BME280;9707;49.158;8.632;2023-03-03T07:08:44;100858.69;;;15.65;29.16
19150;BME280;9707;49.158;8.632;2023-03-03T07:11:11;100853.25;;;15.67;29.35
19150;BME280;9707;49.158;8.632;2023-03-03T07:13:44;100852.28;;;15.68;29.44
19150;BME280;9707;49.158;8.632;2023-03-03T07:16:12;100854.81;;;15.71;29.27
19150;BME280;9707;49.158;8.632;2023-03-03T07:23:44;100870.94;;;15.71;29.58
19150;BME280;9707;49.158;8.632;2023-03-03T07:26:26;100864.53;;;15.73;29.69
19150;BME280;9707;49.158;8.632;2023-03-03T07:29:14;100868.00;;;15.75;29.49
19150;BME280;9707;49.158;8.632;2023-03-03T07:31:45;100869.66;;;15.78;29.74
19150;BME280;9707;49.158;8.632;2023-03-03T07:34:36;100869.50;;;15.81;29.65
19150;BME280;9707;49.158;8.632;2023-03-03T07:37:25;100872.19;;;15.81;29.25
19150;BME280;9707;49.158;8.632;2023-03-03T07:39:53;100878.34;;;15.83;29.22
19150;BME280;9707;49.158;8.632;2023-03-03T07:42:24;100881.03;;;15.83;29.65
19150;BME280;9707;49.158;8.632;2023-03-03T07:44:57;100883.72;;;15.83;29.21
19150;BME280;9707;49.158;8.632;2023-03-03T07:47:27;100891.78;;;15.83;29.12
19150;BME280;9707;49.158;8.632;2023-03-03T07:49:54;100891.78;;;15.83;29.56
19150;BME280;9707;49.158;8.632;2023-03-03T07:52:27;100891.78;;;15.83;29.23
19150;BME280;9707;49.158;8.632;2023-03-03T07:54:56;100886.41;;;15.83;29.62
19150;BME280;9707;49.158;8.632;2023-03-03T07:57:26;100889.09;;;15.83;29.60
19150;BME280;9707;49.158;8.632;2023-03-03T07:59:59;100896.19;;;15.84;29.44
19150;BME280;9707;49.158;8.632;2023-03-03T08:07:49;100902.53;;;15.83;29.67
19150;BME280;9707;49.158;8.632;2023-03-03T08:10:39;100905.13;;;15.84;29.69
19150;BME280;9707;49.158;8.632;2023-03-03T08:15:45;100903.16;;;15.88;30.32
19150;BME280;9707;49.158;8.632;2023-03-03T08:18:34;100907.44;;;15.92;30.17
19150;BME280;9707;49.158;8.632;2023-03-03T08:21:02;100895.66;;;15.94;30.47
19150;BME280;9707;49.158;8.632;2023-03-03T08:23:31;100900.75;;;15.99;30.24
19150;BME280;9707;49.158;8.632;2023-03-03T08:25:57;100893.44;;;16.02;30.21
19150;BME280;9707;49.158;8.632;2023-03-03T08:28:22;100894.13;;;16.06;30.30
19150;BME280;9707;49.158;8.632;2023-03-03T08:30:48;100898.47;;;16.08;30.13
19150;BME280;9707;49.158;8.632;2023-03-03T08:33:14;100896.56;;;16.10;30.35
19150;BME280;9707;49.158;8.632;2023-03-03T08:35:40;100894.66;;;16.12;30.02
19150;BME280;9707;49.158;8.632;2023-03-03T08:38:08;100892.84;;;16.13;30.04
19150;BME280;9707;49.158;8.632;2023-03-03T08:40:34;100899.00;;;16.15;30.00
19150;BME280;9707;49.158;8.632;2023-03-03T08:43:00;100897.13;;;16.17;30.07
19150;BME280;9707;49.158;8.632;2023-03-03T08:45:26;100908.66;;;16.19;30.15
19150;BME280;9707;49.158;8.632;2023-03-03T08:47:51;100914.97;;;16.18;29.96
19150;BME280;9707;49.158;8.632;2023-03-03T08:50:18;100916.72;;;16.19;30.32
19150;BME280;9707;49.158;8.632;2023-03-03T08:52:43;100914.91;;;16.19;30.19
19150;BME280;9707;49.158;8.632;2023-03-03T08:55:09;100917.50;;;16.21;30.16
19150;BME280;9707;49.158;8.632;2023-03-03T08:57:35;100914.81;;;16.21;30.00
19150;BME280;9707;49.158;8.632;2023-03-03T09:00:00;100920.97;;;16.23;29.94
19150;BME280;9707;49.158;8.632;2023-03-03T09:02:26;100925.25;;;16.27;30.28
19150;BME280;9707;49.158;8.632;2023-03-03T09:04:53;100919.78;;;16.28;30.51
19150;BME280;9707;49.158;8.632;2023-03-03T09:07:19;100925.06;;;16.30;30.00
19150;BME280;9707;49.158;8.632;2023-03-03T09:09:44;100925.06;;;16.30;30.13
19150;BME280;9707;49.158;8.632;2023-03-03T09:12:18;100922.38;;;16.30;30.05
19150;BME280;9707;49.158;8.632;2023-03-03T09:14:43;100920.56;;;16.30;30.12
19150;BME280;9707;49.158;8.632;2023-03-03T09:17:23;100925.94;;;16.30;29.45
19150;BME280;9707;49.158;8.632;2023-03-03T09:19:49;100921.59;;;16.28;29.74
19150;BME280;9707;49.158;8.632;2023-03-03T09:22:19;100925.06;;;16.30;29.53
19150;BME280;9707;49.158;8.632;2023-03-03T09:24:48;100921.53;;;16.29;29.25
19150;BME280;9707;49.158;8.632;2023-03-03T09:29:51;100926.09;;;16.27;28.86
19150;BME280;9707;49.158;8.632;2023-03-03T09:32:36;100926.97;;;16.28;29.34
19150;BME280;9707;49.158;8.632;2023-03-03T09:37:53;100931.31;;;16.30;29.34
19150;BME280;9707;49.158;8.632;2023-03-03T09:40:46;100930.28;;;16.33;29.66
19150;BME280;9707;49.158;8.632;2023-03-03T09:43:34;100923.88;;;16.35;29.85
19150;BME280;9707;49.158;8.632;2023-03-03T09:46:13;100939.69;;;16.41;30.11
19150;BME280;9707;49.158;8.632;2023-03-03T09:49:07;100937.72;;;16.45;29.51
19150;BME280;9707;49.158;8.632;2023-03-03T09:57:27;100937.47;;;16.49;29.09
19150;BME280;9707;49.158;8.632;2023-03-03T10:00:26;100943.72;;;16.50;29.08
19150;BME280;9707;49.158;8.632;2023-03-03T10:05:50;100942.69;;;16.52;29.27
19150;BME280;9707;49.158;8.632;2023-03-03T10:11:56;100933.56;;;16.55;29.10
19150;BME280;9707;49.158;8.632;2023-03-03T10:16:57;100932.66;;;16.56;28.71
19150;BME280;9707;49.158;8.632;2023-03-03T10:24:44;100924.66;;;16.54;28.67
19150;BME280;9707;49.158;8.632;2023-03-03T10:27:35;100930.03;;;16.54;28.67
19150;BME280;9707;49.158;8.632;2023-03-03T10:36:10;100935.34;;;16.56;28.65
19150;BME280;9707;49.158;8.632;2023-03-03T10:39:02;100938.78;;;16.58;28.29
19150;BME280;9707;49.158;8.632;2023-03-03T10:42:04;100938.72;;;16.59;28.32
19150;BME280;9707;49.158;8.632;2023-03-03T10:44:52;100940.38;;;16.62;28.11
19150;BME280;9707;49.158;8.632;2023-03-03T10:50:48;100942.88;;;16.65;27.84
19150;BME280;9707;49.158;8.632;2023-03-03T10:53:28;100937.69;;;16.62;27.98
19150;BME280;9707;49.158;8.632;2023-03-03T10:59:00;100936.47;;;16.67;28.03
19150;BME280;9707;49.158;8.632;2023-03-03T11:01:52;100948.88;;;16.70;28.05
19150;BME280;9707;49.158;8.632;2023-03-03T11:07:28;100936.84;;;16.77;27.98
19150;BME280;9707;49.158;8.632;2023-03-03T11:18:43;100936.31;;;16.86;27.71
19150;BME280;9707;49.158;8.632;2023-03-03T11:21:23;100932.56;;;16.88;27.32
19150;BME280;9707;49.158;8.632;2023-03-03T11:26:49;100934.22;;;16.91;26.88
19150;BME280;9707;49.158;8.632;2023-03-03T11:32:26;100923.31;;;16.94;27.16
19150;BME280;9707;49.158;8.632;2023-03-03T11:35:24;100924.88;;;16.98;27.44
19150;BME280;9707;49.158;8.632;2023-03-03T11:40:58;100921.56;;;17.08;27.50
19150;BME280;9707;49.158;8.632;2023-03-03T11:43:43;100920.19;;;17.17;27.69
19150;BME280;9707;49.158;8.632;2023-03-03T11:46:14;100919.84;;;17.23;27.63
19150;BME280;9707;49.158;8.632;2023-03-03T11:51:37;100913.56;;;17.38;27.67
19150;BME280;9707;49.158;8.632;2023-03-03T11:57:54;100906.19;;;17.71;28.03
19150;BME280;9707;49.158;8.632;2023-03-03T12:00:36;100889.31;;;17.83;27.49
19150;BME280;9707;49.158;8.632;2023-03-03T12:03:17;100891.53;;;17.90;27.24
19150;BME280;9707;49.158;8.632;2023-03-03T12:11:16;100886.94;;;18.06;26.52
19150;BME280;9707;49.158;8.632;2023-03-03T12:16:51;100874.72;;;18.15;26.51
19150;BME280;9707;49.158;8.632;2023-03-03T12:22:33;100870.88;;;18.19;26.56
19150;BME280;9707;49.158;8.632;2023-03-03T12:25:13;100868.75;;;18.24;26.38
19150;BME280;9707;49.158;8.632;2023-03-03T12:27:51;100877.50;;;18.27;26.37
19150;BME280;9707;49.158;8.632;2023-03-03T12:30:30;100876.38;;;18.31;27.03
19150;BME280;9707;49.158;8.632;2023-03-03T12:33:23;100866.06;;;18.38;26.60
19150;BME280;9707;49.158;8.632;2023-03-03T12:41:43;100860.50;;;18.41;26.22
19150;BME280;9707;49.158;8.632;2023-03-03T12:44:26;100857.78;;;18.41;26.24
19150;BME280;9707;49.158;8.632;2023-03-03T12:46:59;100859.44;;;18.43;26.27
19150;BME280;9707;49.158;8.632;2023-03-03T12:49:38;100859.34;;;18.45;26.31
19150;BME280;9707;49.158;8.632;2023-03-03T12:58:01;100847.50;;;18.47;26.64
19150;BME280;9707;49.158;8.632;2023-03-03T13:03:21;100856.06;;;18.54;26.31
19150;BME280;9707;49.158;8.632;2023-03-03T13:05:59;100853.16;;;18.57;26.67
19150;BME280;9707;49.158;8.632;2023-03-03T13:14:30;100840.72;;;18.68;27.73
19150;BME280;9707;49.158;8.632;2023-03-03T13:19:36;100836.44;;;18.78;26.47
19150;BME280;9707;49.158;8.632;2023-03-03T13:22:19;100842.81;;;18.77;26.82
19150;BME280;9707;49.158;8.632;2023-03-03T13:24:58;100839.06;;;18.80;26.84
19150;BME280;9707;49.158;8.632;2023-03-03T13:27:32;100833.56;;;18.81;26.88
19150;BME280;9707;49.158;8.632;2023-03-03T13:30:03;100830.72;;;18.83;26.54
19150;BME280;9707;49.158;8.632;2023-03-03T13:32:58;100841.44;;;18.84;26.42
19150;BME280;9707;49.158;8.632;2023-03-03T13:35:43;100840.47;;;18.85;26.86
19150;BME280;9707;49.158;8.632;2023-03-03T13:38:31;100833.25;;;18.86;26.46
19150;BME280;9707;49.158;8.632;2023-03-03T13:41:50;100836.81;;;18.86;26.53
19150;BME280;9707;49.158;8.632;2023-03-03T13:44:11;100822.53;;;18.84;26.38
19150;BME280;9707;49.158;8.632;2023-03-03T13:46:51;100824.50;;;18.82;26.38
19150;BME280;9707;49.158;8.632;2023-03-03T13:51:59;100824.28;;;18.85;26.79
19150;BME280;9707;49.158;8.632;2023-03-03T13:55:02;100819.75;;;18.86;27.18
19150;BME280;9707;49.158;8.632;2023-03-03T14:03:02;100810.91;;;18.84;26.68
19150;BME280;9707;49.158;8.632;2023-03-03T14:06:18;100809.28;;;18.81;26.83
19150;BME280;9707;49.158;8.632;2023-03-03T14:19:03;100801.78;;;18.72;26.99
19150;BME280;9707;49.158;8.632;2023-03-03T14:21:37;100797.34;;;18.71;26.82
19150;BME280;9707;49.158;8.632;2023-03-03T14:26:29;100798.41;;;18.69;26.83
19150;BME280;9707;49.158;8.632;2023-03-03T14:29:21;100793.94;;;18.68;26.83
19150;BME280;9707;49.158;8.632;2023-03-03T14:31:47;100795.03;;;18.65;27.04
19150;BME280;9707;49.158;8.632;2023-03-03T14:36:46;100793.94;;;18.68;26.85
19150;BME280;9707;49.158;8.632;2023-03-03T14:39:34;100791.25;;;18.68;27.05
19150;BME280;9707;49.158;8.632;2023-03-03T14:42:02;100785.84;;;18.68;26.85
19150;BME280;9707;49.158;8.632;2023-03-03T14:44:31;100787.63;;;18.69;27.09
19150;BME280;9707;49.158;8.632;2023-03-03T14:49:35;100789.34;;;18.70;26.84
19150;BME280;9707;49.158;8.632;2023-03-03T14:52:18;100787.50;;;18.70;26.95
19150;BME280;9707;49.158;8.632;2023-03-03T14:54:48;100782.09;;;18.70;26.70
19150;BME280;9707;49.158;8.632;2023-03-03T14:59:39;100773.81;;;18.73;26.71
19150;BME280;9707;49.158;8.632;2023-03-03T15:04:39;100771.84;;;18.75;26.98
19150;BME280;9707;49.158;8.632;2023-03-03T15:07:29;100775.44;;;18.76;27.03
19150;BME280;9707;49.158;8.632;2023-03-03T15:09:55;100774.56;;;18.75;26.79
19150;BME280;9707;49.158;8.632;2023-03-03T15:14:49;100765.72;;;18.73;26.45
19150;BME280;9707;49.158;8.632;2023-03-03T15:22:53;100771.31;;;18.70;26.65
19150;BME280;9707;49.158;8.632;2023-03-03T15:25:38;100766.78;;;18.71;26.82
19150;BME280;9707;49.158;8.632;2023-03-03T15:31:16;100772.59;;;18.65;26.70
19150;BME280;9707;49.158;8.632;2023-03-03T15:39:00;100764.50;;;18.65;26.88
19150;BME280;9707;49.158;8.632;2023-03-03T15:41:39;100771.53;;;18.67;26.87
19150;BME280;9707;49.158;8.632;2023-03-03T15:44:14;100763.53;;;18.66;26.63
19150;BME280;9707;49.158;8.632;2023-03-03T15:46:52;100768.91;;;18.66;26.79
19150;BME280;9707;49.158;8.632;2023-03-03T15:52:15;100768.03;;;18.65;26.66
19150;BME280;9707;49.158;8.632;2023-03-03T15:57:58;100773.56;;;18.64;26.86
19150;BME280;9707;49.158;8.632;2023-03-03T16:01:00;100770.88;;;18.64;26.71
19150;BME280;9707;49.158;8.632;2023-03-03T16:03:30;100772.78;;;18.62;26.82
19150;BME280;9707;49.158;8.632;2023-03-03T16:06:15;100776.25;;;18.64;27.16
19150;BME280;9707;49.158;8.632;2023-03-03T16:09:35;100774.31;;;18.66;26.92
19150;BME280;9707;49.158;8.632;2023-03-03T16:19:50;100787.06;;;18.64;26.77
19150;BME280;9707;49.158;8.632;2023-03-03T16:22:57;100791.47;;;18.65;26.79
19150;BME280;9707;49.158;8.632;2023-03-03T16:27:58;100789.75;;;18.64;26.46